Terminal Aerodrome Forecast
Issued by NWS

Home | Current Version | Previous Version | Graphics & Text | Print | Product List | Glossary On
Versions: 1 2 3 4 5 6 7 8 9 10 11 12 13 14 15 16
000
FTUS43 KBIS 210524
TAFJMS
TAF
KJMS 210524Z 2106/2206 12006KT P6SM FEW250
     FM211100 15007KT P6SM VCSH BKN130
     FM211400 15009KT P6SM BKN100
     FM211700 19014G22KT P6SM SCT200
     FM212200 30018G26KT P6SM FEW200
     FM220200 32009KT P6SM SKC=

USA.gov is the U.S. government's official web portal to all federal, state and local government web resources and services.